sensor_id;sensor_type;location;lat;lon;timestamp;P1;durP1;ratioP1;P2;durP2;ratioP2
46875;SDS011;32866;50.160;14.768;2022-12-07T00:00:16;2.55;;;1.77;;
46875;SDS011;32866;50.160;14.768;2022-12-07T00:02:42;2.95;;;1.98;;
46875;SDS011;32866;50.160;14.768;2022-12-07T00:05:07;2.85;;;1.80;;
46875;SDS011;32866;50.160;14.768;2022-12-07T00:07:33;2.40;;;1.73;;
46875;SDS011;32866;50.160;14.768;2022-12-07T00:09:58;2.70;;;1.98;;
46875;SDS011;32866;50.160;14.768;2022-12-07T00:12:23;4.28;;;2.47;;
46875;SDS011;32866;50.160;14.768;2022-12-07T00:14:49;3.58;;;2.15;;
46875;SDS011;32866;50.160;14.768;2022-12-07T00:17:14;3.13;;;2.25;;
46875;SDS011;32866;50.160;14.768;2022-12-07T00:19:39;2.50;;;2.20;;
46875;SDS011;32866;50.160;14.768;2022-12-07T00:22:05;3.33;;;1.90;;
46875;SDS011;32866;50.160;14.768;2022-12-07T00:24:30;2.13;;;1.88;;
46875;SDS011;32866;50.160;14.768;2022-12-07T00:26:55;2.28;;;1.80;;
46875;SDS011;32866;50.160;14.768;2022-12-07T00:29:21;2.45;;;1.70;;
46875;SDS011;32866;50.160;14.768;2022-12-07T00:34:19;3.57;;;1.83;;
46875;SDS011;32866;50.160;14.768;2022-12-07T00:36:45;4.70;;;2.33;;
46875;SDS011;32866;50.160;14.768;2022-12-07T00:39:11;2.90;;;1.65;;
46875;SDS011;32866;50.160;14.768;2022-12-07T00:41:36;3.28;;;2.00;;
46875;SDS011;32866;50.160;14.768;2022-12-07T00:44:02;3.65;;;2.47;;
46875;SDS011;32866;50.160;14.768;2022-12-07T00:46:27;5.30;;;1.98;;
46875;SDS011;32866;50.160;14.768;2022-12-07T00:48:53;2.13;;;1.55;;
46875;SDS011;32866;50.160;14.768;2022-12-07T00:51:21;4.37;;;2.57;;
46875;SDS011;32866;50.160;14.768;2022-12-07T00:53:47;2.80;;;2.00;;
46875;SDS011;32866;50.160;14.768;2022-12-07T00:56:21;2.03;;;1.70;;
46875;SDS011;32866;50.160;14.768;2022-12-07T00:58:55;3.17;;;2.00;;
46875;SDS011;32866;50.160;14.768;2022-12-07T01:01:22;2.53;;;1.60;;
46875;SDS011;32866;50.160;14.768;2022-12-07T01:03:48;3.23;;;2.10;;
46875;SDS011;32866;50.160;14.768;2022-12-07T01:06:14;3.65;;;2.00;;
46875;SDS011;32866;50.160;14.768;2022-12-07T01:08:42;3.57;;;1.83;;
46875;SDS011;32866;50.160;14.768;2022-12-07T01:11:07;3.05;;;1.77;;
46875;SDS011;32866;50.160;14.768;2022-12-07T01:13:36;3.77;;;2.13;;
46875;SDS011;32866;50.160;14.768;2022-12-07T01:16:03;3.80;;;1.70;;
46875;SDS011;32866;50.160;14.768;2022-12-07T01:18:31;3.33;;;1.70;;
46875;SDS011;32866;50.160;14.768;2022-12-07T01:23:23;3.40;;;2.35;;
46875;SDS011;32866;50.160;14.768;2022-12-07T01:25:58;1.75;;;1.52;;
46875;SDS011;32866;50.160;14.768;2022-12-07T01:28:25;3.22;;;1.77;;
46875;SDS011;32866;50.160;14.768;2022-12-07T01:33:48;3.70;;;1.80;;
46875;SDS011;32866;50.160;14.768;2022-12-07T01:38:46;2.50;;;1.80;;
46875;SDS011;32866;50.160;14.768;2022-12-07T01:41:16;2.57;;;1.63;;
46875;SDS011;32866;50.160;14.768;2022-12-07T01:46:48;2.77;;;2.07;;
46875;SDS011;32866;50.160;14.768;2022-12-07T01:49:16;1.90;;;1.50;;
46875;SDS011;32866;50.160;14.768;2022-12-07T01:51:46;3.93;;;1.40;;
46875;SDS011;32866;50.160;14.768;2022-12-07T01:54:14;2.70;;;1.60;;
46875;SDS011;32866;50.160;14.768;2022-12-07T01:56:42;2.60;;;2.00;;
46875;SDS011;32866;50.160;14.768;2022-12-07T01:59:12;2.87;;;1.70;;
46875;SDS011;32866;50.160;14.768;2022-12-07T02:01:38;1.40;;;1.20;;
46875;SDS011;32866;50.160;14.768;2022-12-07T02:04:04;3.20;;;2.08;;
46875;SDS011;32866;50.160;14.768;2022-12-07T02:06:31;3.30;;;1.77;;
46875;SDS011;32866;50.160;14.768;2022-12-07T02:08:56;4.38;;;2.63;;
46875;SDS011;32866;50.160;14.768;2022-12-07T02:11:22;2.47;;;1.80;;
46875;SDS011;32866;50.160;14.768;2022-12-07T02:13:47;3.85;;;2.38;;
46875;SDS011;32866;50.160;14.768;2022-12-07T02:19:05;3.90;;;2.70;;
46875;SDS011;32866;50.160;14.768;2022-12-07T02:24:53;2.90;;;2.17;;
46875;SDS011;32866;50.160;14.768;2022-12-07T02:30:15;3.57;;;2.57;;
46875;SDS011;32866;50.160;14.768;2022-12-07T02:33:00;3.07;;;2.17;;
46875;SDS011;32866;50.160;14.768;2022-12-07T02:35:33;3.23;;;2.07;;
46875;SDS011;32866;50.160;14.768;2022-12-07T02:38:10;3.20;;;2.37;;
46875;SDS011;32866;50.160;14.768;2022-12-07T02:40:50;3.43;;;2.30;;
46875;SDS011;32866;50.160;14.768;2022-12-07T02:43:34;2.92;;;2.33;;
46875;SDS011;32866;50.160;14.768;2022-12-07T02:46:08;3.53;;;2.23;;
46875;SDS011;32866;50.160;14.768;2022-12-07T02:48:38;3.97;;;2.57;;
46875;SDS011;32866;50.160;14.768;2022-12-07T02:51:04;3.10;;;2.50;;
46875;SDS011;32866;50.160;14.768;2022-12-07T03:10:24;3.57;;;2.40;;
46875;SDS011;32866;50.160;14.768;2022-12-07T03:17:52;2.55;;;2.20;;
46875;SDS011;32866;50.160;14.768;2022-12-07T03:20:23;3.83;;;2.37;;
46875;SDS011;32866;50.160;14.768;2022-12-07T03:22:50;2.97;;;2.43;;
46875;SDS011;32866;50.160;14.768;2022-12-07T03:25:19;3.57;;;2.13;;
46875;SDS011;32866;50.160;14.768;2022-12-07T03:27:57;2.97;;;2.47;;
46875;SDS011;32866;50.160;14.768;2022-12-07T03:30:30;3.60;;;2.63;;
46875;SDS011;32866;50.160;14.768;2022-12-07T03:35:42;4.13;;;2.70;;
46875;SDS011;32866;50.160;14.768;2022-12-07T03:38:23;3.13;;;2.60;;
46875;SDS011;32866;50.160;14.768;2022-12-07T03:43:24;5.13;;;2.67;;
46875;SDS011;32866;50.160;14.768;2022-12-07T03:46:06;3.80;;;2.80;;
46875;SDS011;32866;50.160;14.768;2022-12-07T03:51:56;7.13;;;4.60;;
46875;SDS011;32866;50.160;14.768;2022-12-07T03:54:32;6.77;;;3.93;;
46875;SDS011;32866;50.160;14.768;2022-12-07T03:57:01;14.57;;;7.87;;
46875;SDS011;32866;50.160;14.768;2022-12-07T03:59:27;11.50;;;5.83;;
46875;SDS011;32866;50.160;14.768;2022-12-07T04:01:55;9.03;;;5.20;;
46875;SDS011;32866;50.160;14.768;2022-12-07T04:04:25;5.43;;;3.80;;
46875;SDS011;32866;50.160;14.768;2022-12-07T04:06:51;8.18;;;4.82;;
46875;SDS011;32866;50.160;14.768;2022-12-07T04:09:16;14.70;;;7.43;;
46875;SDS011;32866;50.160;14.768;2022-12-07T04:11:42;7.38;;;5.10;;
46875;SDS011;32866;50.160;14.768;2022-12-07T04:14:07;8.45;;;5.43;;
46875;SDS011;32866;50.160;14.768;2022-12-07T04:16:49;3.57;;;3.07;;
46875;SDS011;32866;50.160;14.768;2022-12-07T04:19:18;4.43;;;3.70;;
46875;SDS011;32866;50.160;14.768;2022-12-07T04:21:46;4.97;;;3.13;;
46875;SDS011;32866;50.160;14.768;2022-12-07T04:24:12;2.65;;;2.45;;
46875;SDS011;32866;50.160;14.768;2022-12-07T04:26:39;3.57;;;3.20;;
46875;SDS011;32866;50.160;14.768;2022-12-07T04:29:05;8.13;;;5.18;;
46875;SDS011;32866;50.160;14.768;2022-12-07T04:31:30;5.50;;;4.72;;
46875;SDS011;32866;50.160;14.768;2022-12-07T04:33:55;5.72;;;3.75;;
46875;SDS011;32866;50.160;14.768;2022-12-07T04:36:21;4.05;;;3.20;;
46875;SDS011;32866;50.160;14.768;2022-12-07T04:38:46;9.88;;;6.90;;
46875;SDS011;32866;50.160;14.768;2022-12-07T04:41:12;17.42;;;8.48;;
46875;SDS011;32866;50.160;14.768;2022-12-07T04:43:38;10.80;;;6.78;;
46875;SDS011;32866;50.160;14.768;2022-12-07T04:46:04;12.35;;;6.38;;
46875;SDS011;32866;50.160;14.768;2022-12-07T04:48:29;9.00;;;6.80;;
46875;SDS011;32866;50.160;14.768;2022-12-07T04:50:55;4.72;;;4.13;;
46875;SDS011;32866;50.160;14.768;2022-12-07T04:53:20;4.10;;;3.70;;
46875;SDS011;32866;50.160;14.768;2022-12-07T04:55:46;7.40;;;4.80;;
46875;SDS011;32866;50.160;14.768;2022-12-07T04:58:12;5.57;;;3.88;;
46875;SDS011;32866;50.160;14.768;2022-12-07T05:00:38;6.83;;;4.30;;
46875;SDS011;32866;50.160;14.768;2022-12-07T05:05:29;5.10;;;3.30;;
46875;SDS011;32866;50.160;14.768;2022-12-07T05:07:55;6.00;;;3.47;;
46875;SDS011;32866;50.160;14.768;2022-12-07T05:10:20;6.65;;;3.78;;
46875;SDS011;32866;50.160;14.768;2022-12-07T05:12:46;5.95;;;3.92;;
46875;SDS011;32866;50.160;14.768;2022-12-07T05:15:11;7.43;;;3.75;;
46875;SDS011;32866;50.160;14.768;2022-12-07T05:17:37;5.25;;;4.00;;
46875;SDS011;32866;50.160;14.768;2022-12-07T05:20:03;5.05;;;3.60;;
46875;SDS011;32866;50.160;14.768;2022-12-07T05:22:32;5.60;;;4.10;;
46875;SDS011;32866;50.160;14.768;2022-12-07T05:24:57;4.63;;;3.03;;
46875;SDS011;32866;50.160;14.768;2022-12-07T05:27:23;5.25;;;3.85;;
46875;SDS011;32866;50.160;14.768;2022-12-07T05:29:49;5.90;;;3.33;;
46875;SDS011;32866;50.160;14.768;2022-12-07T05:32:15;5.20;;;3.60;;
46875;SDS011;32866;50.160;14.768;2022-12-07T05:34:40;4.13;;;3.40;;
46875;SDS011;32866;50.160;14.768;2022-12-07T05:37:06;5.22;;;3.83;;
46875;SDS011;32866;50.160;14.768;2022-12-07T05:39:31;5.88;;;4.35;;
46875;SDS011;32866;50.160;14.768;2022-12-07T05:41:56;6.43;;;4.35;;
46875;SDS011;32866;50.160;14.768;2022-12-07T05:44:37;6.63;;;4.80;;
46875;SDS011;32866;50.160;14.768;2022-12-07T05:47:10;7.87;;;4.90;;
46875;SDS011;32866;50.160;14.768;2022-12-07T05:49:36;7.63;;;5.20;;
46875;SDS011;32866;50.160;14.768;2022-12-07T05:52:02;5.57;;;4.60;;
46875;SDS011;32866;50.160;14.768;2022-12-07T05:54:27;9.15;;;5.30;;
46875;SDS011;32866;50.160;14.768;2022-12-07T05:56:53;5.35;;;4.45;;
46875;SDS011;32866;50.160;14.768;2022-12-07T05:59:18;6.78;;;4.60;;
46875;SDS011;32866;50.160;14.768;2022-12-07T06:01:59;5.23;;;4.30;;
46875;SDS011;32866;50.160;14.768;2022-12-07T06:04:31;9.07;;;5.20;;
46875;SDS011;32866;50.160;14.768;2022-12-07T06:06:58;8.93;;;5.77;;
46875;SDS011;32866;50.160;14.768;2022-12-07T06:09:23;6.65;;;4.68;;
46875;SDS011;32866;50.160;14.768;2022-12-07T06:11:50;6.43;;;4.53;;
46875;SDS011;32866;50.160;14.768;2022-12-07T06:14:34;11.00;;;6.73;;
46875;SDS011;32866;50.160;14.768;2022-12-07T06:17:00;6.78;;;4.93;;
46875;SDS011;32866;50.160;14.768;2022-12-07T06:19:26;7.88;;;4.72;;
46875;SDS011;32866;50.160;14.768;2022-12-07T06:21:51;5.78;;;4.43;;
46875;SDS011;32866;50.160;14.768;2022-12-07T06:24:17;7.05;;;4.60;;
46875;SDS011;32866;50.160;14.768;2022-12-07T06:26:43;5.75;;;4.35;;
46875;SDS011;32866;50.160;14.768;2022-12-07T06:29:08;7.15;;;4.22;;
46875;SDS011;32866;50.160;14.768;2022-12-07T06:31:35;6.18;;;3.75;;
46875;SDS011;32866;50.160;14.768;2022-12-07T06:34:02;6.40;;;4.33;;
46875;SDS011;32866;50.160;14.768;2022-12-07T06:36:33;5.57;;;4.13;;
46875;SDS011;32866;50.160;14.768;2022-12-07T06:38:59;5.45;;;4.15;;
46875;SDS011;32866;50.160;14.768;2022-12-07T06:41:24;7.60;;;4.65;;
46875;SDS011;32866;50.160;14.768;2022-12-07T06:43:49;7.30;;;4.40;;
46875;SDS011;32866;50.160;14.768;2022-12-07T06:46:15;6.53;;;4.47;;
46875;SDS011;32866;50.160;14.768;2022-12-07T06:48:41;6.80;;;4.78;;
46875;SDS011;32866;50.160;14.768;2022-12-07T06:51:07;5.83;;;4.23;;
46875;SDS011;32866;50.160;14.768;2022-12-07T06:53:33;7.93;;;4.45;;
46875;SDS011;32866;50.160;14.768;2022-12-07T06:55:58;6.32;;;4.07;;
46875;SDS011;32866;50.160;14.768;2022-12-07T06:58:24;6.45;;;4.38;;
46875;SDS011;32866;50.160;14.768;2022-12-07T07:00:49;10.10;;;4.88;;
46875;SDS011;32866;50.160;14.768;2022-12-07T07:03:15;6.38;;;4.00;;
46875;SDS011;32866;50.160;14.768;2022-12-07T07:08:07;7.13;;;4.87;;
46875;SDS011;32866;50.160;14.768;2022-12-07T07:10:32;5.72;;;4.18;;
46875;SDS011;32866;50.160;14.768;2022-12-07T07:12:57;5.82;;;3.70;;
46875;SDS011;32866;50.160;14.768;2022-12-07T07:15:23;4.28;;;3.60;;
46875;SDS011;32866;50.160;14.768;2022-12-07T07:17:48;10.10;;;5.85;;
46875;SDS011;32866;50.160;14.768;2022-12-07T07:20:14;7.50;;;5.63;;
46875;SDS011;32866;50.160;14.768;2022-12-07T07:22:39;7.65;;;4.32;;
46875;SDS011;32866;50.160;14.768;2022-12-07T07:25:05;6.22;;;4.63;;
46875;SDS011;32866;50.160;14.768;2022-12-07T07:27:30;8.43;;;5.65;;
46875;SDS011;32866;50.160;14.768;2022-12-07T07:29:56;9.45;;;5.82;;
46875;SDS011;32866;50.160;14.768;2022-12-07T07:32:21;8.10;;;5.20;;
46875;SDS011;32866;50.160;14.768;2022-12-07T07:34:47;7.00;;;4.70;;
46875;SDS011;32866;50.160;14.768;2022-12-07T07:37:12;10.88;;;5.07;;
46875;SDS011;32866;50.160;14.768;2022-12-07T07:42:13;9.10;;;6.10;;
46875;SDS011;32866;50.160;14.768;2022-12-07T07:44:39;8.88;;;5.20;;
46875;SDS011;32866;50.160;14.768;2022-12-07T07:47:04;6.45;;;4.68;;
46875;SDS011;32866;50.160;14.768;2022-12-07T07:49:29;8.68;;;5.82;;
46875;SDS011;32866;50.160;14.768;2022-12-07T07:51:55;8.20;;;5.22;;
46875;SDS011;32866;50.160;14.768;2022-12-07T07:54:20;8.23;;;6.03;;
46875;SDS011;32866;50.160;14.768;2022-12-07T07:56:45;9.68;;;4.90;;
46875;SDS011;32866;50.160;14.768;2022-12-07T07:59:11;6.53;;;4.45;;
46875;SDS011;32866;50.160;14.768;2022-12-07T08:01:36;9.43;;;5.85;;
46875;SDS011;32866;50.160;14.768;2022-12-07T08:04:01;8.48;;;4.43;;
46875;SDS011;32866;50.160;14.768;2022-12-07T08:06:27;11.10;;;5.75;;
46875;SDS011;32866;50.160;14.768;2022-12-07T08:08:52;7.93;;;4.90;;
46875;SDS011;32866;50.160;14.768;2022-12-07T08:11:18;6.80;;;4.60;;
46875;SDS011;32866;50.160;14.768;2022-12-07T08:13:46;7.78;;;4.47;;
46875;SDS011;32866;50.160;14.768;2022-12-07T08:16:12;8.40;;;4.83;;
46875;SDS011;32866;50.160;14.768;2022-12-07T08:18:39;9.13;;;4.50;;
46875;SDS011;32866;50.160;14.768;2022-12-07T08:23:31;6.90;;;4.80;;
46875;SDS011;32866;50.160;14.768;2022-12-07T08:26:01;5.53;;;4.13;;
46875;SDS011;32866;50.160;14.768;2022-12-07T08:28:28;8.43;;;4.37;;
46875;SDS011;32866;50.160;14.768;2022-12-07T08:31:04;7.80;;;4.47;;
46875;SDS011;32866;50.160;14.768;2022-12-07T08:33:31;8.77;;;3.03;;
46875;SDS011;32866;50.160;14.768;2022-12-07T08:36:07;6.07;;;4.60;;
46875;SDS011;32866;50.160;14.768;2022-12-07T08:38:37;5.47;;;3.97;;
46875;SDS011;32866;50.160;14.768;2022-12-07T08:41:03;5.07;;;4.40;;
46875;SDS011;32866;50.160;14.768;2022-12-07T08:43:29;6.15;;;4.07;;
46875;SDS011;32866;50.160;14.768;2022-12-07T08:48:32;6.37;;;3.93;;
46875;SDS011;32866;50.160;14.768;2022-12-07T08:51:01;8.57;;;5.03;;
46875;SDS011;32866;50.160;14.768;2022-12-07T08:53:27;5.77;;;4.30;;
46875;SDS011;32866;50.160;14.768;2022-12-07T08:55:53;5.57;;;3.87;;
46875;SDS011;32866;50.160;14.768;2022-12-07T08:58:18;6.93;;;3.78;;
46875;SDS011;32866;50.160;14.768;2022-12-07T09:00:44;5.93;;;3.85;;
46875;SDS011;32866;50.160;14.768;2022-12-07T09:03:09;7.43;;;4.47;;
46875;SDS011;32866;50.160;14.768;2022-12-07T09:05:34;7.18;;;4.55;;
46875;SDS011;32866;50.160;14.768;2022-12-07T09:08:00;7.13;;;4.35;;
46875;SDS011;32866;50.160;14.768;2022-12-07T09:10:27;7.97;;;5.03;;
46875;SDS011;32866;50.160;14.768;2022-12-07T09:12:53;8.10;;;5.37;;
46875;SDS011;32866;50.160;14.768;2022-12-07T09:15:18;8.18;;;5.22;;
46875;SDS011;32866;50.160;14.768;2022-12-07T09:17:44;6.70;;;5.18;;
46875;SDS011;32866;50.160;14.768;2022-12-07T09:20:10;5.70;;;4.53;;
46875;SDS011;32866;50.160;14.768;2022-12-07T09:25:02;7.57;;;5.10;;
46875;SDS011;32866;50.160;14.768;2022-12-07T09:27:29;7.50;;;5.70;;
46875;SDS011;32866;50.160;14.768;2022-12-07T09:32:20;8.33;;;5.20;;
46875;SDS011;32866;50.160;14.768;2022-12-07T09:34:46;10.80;;;5.28;;
46875;SDS011;32866;50.160;14.768;2022-12-07T09:37:12;9.25;;;5.47;;
46875;SDS011;32866;50.160;14.768;2022-12-07T09:39:37;8.35;;;5.32;;
46875;SDS011;32866;50.160;14.768;2022-12-07T09:42:04;12.03;;;5.53;;
46875;SDS011;32866;50.160;14.768;2022-12-07T09:44:30;7.37;;;5.10;;
46875;SDS011;32866;50.160;14.768;2022-12-07T09:46:55;9.38;;;6.43;;
46875;SDS011;32866;50.160;14.768;2022-12-07T09:49:22;8.85;;;5.57;;
46875;SDS011;32866;50.160;14.768;2022-12-07T09:52:00;8.93;;;4.93;;
46875;SDS011;32866;50.160;14.768;2022-12-07T09:54:26;9.65;;;6.00;;
46875;SDS011;32866;50.160;14.768;2022-12-07T09:56:51;10.23;;;6.45;;
46875;SDS011;32866;50.160;14.768;2022-12-07T10:01:43;9.97;;;5.33;;
46875;SDS011;32866;50.160;14.768;2022-12-07T10:04:13;10.13;;;6.50;;
46875;SDS011;32866;50.160;14.768;2022-12-07T10:06:41;9.30;;;6.10;;
46875;SDS011;32866;50.160;14.768;2022-12-07T10:11:34;8.07;;;5.47;;
46875;SDS011;32866;50.160;14.768;2022-12-07T10:14:10;7.97;;;5.60;;
46875;SDS011;32866;50.160;14.768;2022-12-07T10:16:38;9.03;;;6.00;;
46875;SDS011;32866;50.160;14.768;2022-12-07T10:19:19;7.87;;;4.87;;
46875;SDS011;32866;50.160;14.768;2022-12-07T10:24:46;7.30;;;5.03;;
46875;SDS011;32866;50.160;14.768;2022-12-07T10:27:22;8.60;;;5.37;;
46875;SDS011;32866;50.160;14.768;2022-12-07T10:29:54;7.93;;;4.77;;
46875;SDS011;32866;50.160;14.768;2022-12-07T10:34:44;5.73;;;4.47;;
46875;SDS011;32866;50.160;14.768;2022-12-07T10:39:42;6.73;;;5.03;;
46875;SDS011;32866;50.160;14.768;2022-12-07T10:42:20;6.07;;;4.27;;
46875;SDS011;32866;50.160;14.768;2022-12-07T10:44:50;5.30;;;3.92;;
46875;SDS011;32866;50.160;14.768;2022-12-07T10:47:38;8.73;;;4.63;;
46875;SDS011;32866;50.160;14.768;2022-12-07T10:53:09;7.17;;;4.67;;
46875;SDS011;32866;50.160;14.768;2022-12-07T10:58:55;7.03;;;5.10;;
46875;SDS011;32866;50.160;14.768;2022-12-07T11:01:33;4.97;;;3.67;;
46875;SDS011;32866;50.160;14.768;2022-12-07T11:24:18;7.93;;;3.90;;
46875;SDS011;32866;50.160;14.768;2022-12-07T11:32:28;7.03;;;4.40;;
46875;SDS011;32866;50.160;14.768;2022-12-07T11:41:13;3.07;;;2.70;;
46875;SDS011;32866;50.160;14.768;2022-12-07T11:44:02;5.00;;;3.53;;
46875;SDS011;32866;50.160;14.768;2022-12-07T11:46:51;3.83;;;2.60;;
46875;SDS011;32866;50.160;14.768;2022-12-07T11:49:26;5.03;;;3.70;;
46875;SDS011;32866;50.160;14.768;2022-12-07T11:51:58;7.57;;;4.77;;
46875;SDS011;32866;50.160;14.768;2022-12-07T11:54:29;4.70;;;3.50;;
46875;SDS011;32866;50.160;14.768;2022-12-07T11:57:02;5.23;;;3.50;;
46875;SDS011;32866;50.160;14.768;2022-12-07T11:59:41;6.07;;;3.30;;
46875;SDS011;32866;50.160;14.768;2022-12-07T12:02:16;4.77;;;3.90;;
46875;SDS011;32866;50.160;14.768;2022-12-07T12:05:02;4.70;;;3.27;;
46875;SDS011;32866;50.160;14.768;2022-12-07T12:07:38;4.80;;;3.03;;
46875;SDS011;32866;50.160;14.768;2022-12-07T12:10:06;5.53;;;3.20;;
46875;SDS011;32866;50.160;14.768;2022-12-07T12:23:27;6.47;;;3.67;;
46875;SDS011;32866;50.160;14.768;2022-12-07T12:26:04;7.67;;;4.10;;
46875;SDS011;32866;50.160;14.768;2022-12-07T12:28:35;7.90;;;4.23;;
46875;SDS011;32866;50.160;14.768;2022-12-07T12:33:46;6.07;;;3.70;;
46875;SDS011;32866;50.160;14.768;2022-12-07T12:47:00;5.70;;;3.37;;
46875;SDS011;32866;50.160;14.768;2022-12-07T12:49:40;3.90;;;2.93;;
46875;SDS011;32866;50.160;14.768;2022-12-07T12:54:40;4.47;;;2.97;;
46875;SDS011;32866;50.160;14.768;2022-12-07T12:57:33;6.83;;;2.90;;
46875;SDS011;32866;50.160;14.768;2022-12-07T13:00:02;4.63;;;2.37;;
46875;SDS011;32866;50.160;14.768;2022-12-07T13:05:21;8.57;;;3.07;;
46875;SDS011;32866;50.160;14.768;2022-12-07T13:07:53;4.27;;;3.03;;
46875;SDS011;32866;50.160;14.768;2022-12-07T13:10:30;6.00;;;2.87;;
46875;SDS011;32866;50.160;14.768;2022-12-07T13:15:39;4.13;;;2.87;;
46875;SDS011;32866;50.160;14.768;2022-12-07T13:23:25;5.17;;;3.27;;
46875;SDS011;32866;50.160;14.768;2022-12-07T13:31:36;4.43;;;2.93;;
46875;SDS011;32866;50.160;14.768;2022-12-07T13:34:05;4.70;;;2.87;;
46875;SDS011;32866;50.160;14.768;2022-12-07T13:36:50;3.40;;;2.63;;
46875;SDS011;32866;50.160;14.768;2022-12-07T13:41:42;3.60;;;2.63;;
46875;SDS011;32866;50.160;14.768;2022-12-07T13:44:14;24.58;;;3.20;;
46875;SDS011;32866;50.160;14.768;2022-12-07T13:51:48;9.03;;;3.13;;
46875;SDS011;32866;50.160;14.768;2022-12-07T13:54:15;5.97;;;3.00;;
46875;SDS011;32866;50.160;14.768;2022-12-07T13:56:41;3.78;;;2.88;;
46875;SDS011;32866;50.160;14.768;2022-12-07T13:59:14;8.43;;;3.50;;
46875;SDS011;32866;50.160;14.768;2022-12-07T14:01:46;5.50;;;2.53;;
46875;SDS011;32866;50.160;14.768;2022-12-07T14:06:58;5.03;;;3.70;;
46875;SDS011;32866;50.160;14.768;2022-12-07T14:09:27;5.67;;;3.60;;
46875;SDS011;32866;50.160;14.768;2022-12-07T14:11:54;5.33;;;3.60;;
46875;SDS011;32866;50.160;14.768;2022-12-07T14:14:28;4.83;;;3.20;;
46875;SDS011;32866;50.160;14.768;2022-12-07T14:16:56;3.80;;;2.90;;
46875;SDS011;32866;50.160;14.768;2022-12-07T14:24:45;3.93;;;3.03;;
46875;SDS011;32866;50.160;14.768;2022-12-07T14:27:17;4.20;;;2.72;;
46875;SDS011;32866;50.160;14.768;2022-12-07T14:30:02;5.60;;;3.30;;
46875;SDS011;32866;50.160;14.768;2022-12-07T14:32:29;6.27;;;2.57;;
46875;SDS011;32866;50.160;14.768;2022-12-07T14:35:00;5.47;;;3.27;;
46875;SDS011;32866;50.160;14.768;2022-12-07T14:37:26;2.73;;;2.17;;
46875;SDS011;32866;50.160;14.768;2022-12-07T14:39:53;4.23;;;2.20;;
46875;SDS011;32866;50.160;14.768;2022-12-07T14:42:19;6.90;;;2.95;;
46875;SDS011;32866;50.160;14.768;2022-12-07T14:44:46;6.47;;;3.17;;
46875;SDS011;32866;50.160;14.768;2022-12-07T14:47:12;6.03;;;2.85;;
46875;SDS011;32866;50.160;14.768;2022-12-07T14:49:37;3.78;;;2.63;;
46875;SDS011;32866;50.160;14.768;2022-12-07T14:52:03;4.88;;;3.03;;
46875;SDS011;32866;50.160;14.768;2022-12-07T14:54:30;10.87;;;4.17;;
46875;SDS011;32866;50.160;14.768;2022-12-07T14:56:57;5.17;;;3.07;;
46875;SDS011;32866;50.160;14.768;2022-12-07T14:59:22;7.13;;;3.88;;
46875;SDS011;32866;50.160;14.768;2022-12-07T15:01:47;6.90;;;4.22;;
46875;SDS011;32866;50.160;14.768;2022-12-07T15:04:13;5.80;;;4.10;;
46875;SDS011;32866;50.160;14.768;2022-12-07T15:06:38;7.43;;;4.18;;
46875;SDS011;32866;50.160;14.768;2022-12-07T15:09:04;8.15;;;4.30;;
46875;SDS011;32866;50.160;14.768;2022-12-07T15:11:29;4.53;;;3.55;;
46875;SDS011;32866;50.160;14.768;2022-12-07T15:13:55;6.93;;;4.43;;
46875;SDS011;32866;50.160;14.768;2022-12-07T15:16:39;9.50;;;4.67;;
46875;SDS011;32866;50.160;14.768;2022-12-07T15:19:17;4.77;;;3.70;;
46875;SDS011;32866;50.160;14.768;2022-12-07T15:21:44;7.50;;;5.17;;
46875;SDS011;32866;50.160;14.768;2022-12-07T15:24:10;6.10;;;4.35;;
46875;SDS011;32866;50.160;14.768;2022-12-07T15:26:37;7.50;;;4.67;;
46875;SDS011;32866;50.160;14.768;2022-12-07T15:31:28;8.53;;;5.43;;
46875;SDS011;32866;50.160;14.768;2022-12-07T15:33:54;8.60;;;5.05;;
46875;SDS011;32866;50.160;14.768;2022-12-07T15:36:23;9.30;;;5.32;;
46875;SDS011;32866;50.160;14.768;2022-12-07T15:38:51;11.40;;;5.53;;
46875;SDS011;32866;50.160;14.768;2022-12-07T15:41:17;9.95;;;5.60;;
46875;SDS011;32866;50.160;14.768;2022-12-07T15:46:33;10.70;;;5.70;;
46875;SDS011;32866;50.160;14.768;2022-12-07T15:49:01;8.53;;;5.90;;
46875;SDS011;32866;50.160;14.768;2022-12-07T15:53:53;6.03;;;4.13;;
46875;SDS011;32866;50.160;14.768;2022-12-07T15:56:18;10.25;;;6.30;;
46875;SDS011;32866;50.160;14.768;2022-12-07T15:58:44;8.43;;;5.28;;
46875;SDS011;32866;50.160;14.768;2022-12-07T16:01:17;13.27;;;5.70;;
46875;SDS011;32866;50.160;14.768;2022-12-07T16:03:44;9.53;;;5.60;;
46875;SDS011;32866;50.160;14.768;2022-12-07T16:06:10;8.25;;;5.82;;
46875;SDS011;32866;50.160;14.768;2022-12-07T16:08:36;9.45;;;5.55;;
46875;SDS011;32866;50.160;14.768;2022-12-07T16:11:05;8.82;;;5.07;;
46875;SDS011;32866;50.160;14.768;2022-12-07T16:13:31;8.70;;;5.23;;
46875;SDS011;32866;50.160;14.768;2022-12-07T16:15:56;8.73;;;4.88;;
46875;SDS011;32866;50.160;14.768;2022-12-07T16:18:22;8.68;;;5.32;;
46875;SDS011;32866;50.160;14.768;2022-12-07T16:20:48;6.65;;;4.80;;
46875;SDS011;32866;50.160;14.768;2022-12-07T16:23:14;4.47;;;3.80;;
46875;SDS011;32866;50.160;14.768;2022-12-07T16:25:39;7.10;;;4.65;;
46875;SDS011;32866;50.160;14.768;2022-12-07T16:28:05;7.40;;;4.28;;
46875;SDS011;32866;50.160;14.768;2022-12-07T16:30:31;11.63;;;5.03;;
46875;SDS011;32866;50.160;14.768;2022-12-07T16:32:56;6.90;;;4.93;;
46875;SDS011;32866;50.160;14.768;2022-12-07T16:35:22;7.20;;;4.55;;
46875;SDS011;32866;50.160;14.768;2022-12-07T16:37:47;9.45;;;5.18;;
46875;SDS011;32866;50.160;14.768;2022-12-07T16:40:12;7.75;;;5.30;;
46875;SDS011;32866;50.160;14.768;2022-12-07T16:42:38;6.78;;;4.47;;
46875;SDS011;32866;50.160;14.768;2022-12-07T16:45:03;7.28;;;5.00;;
46875;SDS011;32866;50.160;14.768;2022-12-07T16:47:29;7.03;;;4.65;;
46875;SDS011;32866;50.160;14.768;2022-12-07T16:49:54;6.60;;;4.30;;
46875;SDS011;32866;50.160;14.768;2022-12-07T16:52:20;9.95;;;4.78;;
46875;SDS011;32866;50.160;14.768;2022-12-07T16:57:12;8.43;;;4.73;;
46875;SDS011;32866;50.160;14.768;2022-12-07T16:59:37;7.43;;;4.93;;
46875;SDS011;32866;50.160;14.768;2022-12-07T17:02:02;13.00;;;6.32;;
46875;SDS011;32866;50.160;14.768;2022-12-07T17:04:28;10.60;;;6.53;;
46875;SDS011;32866;50.160;14.768;2022-12-07T17:06:54;10.18;;;5.75;;
46875;SDS011;32866;50.160;14.768;2022-12-07T17:09:19;10.07;;;5.13;;
46875;SDS011;32866;50.160;14.768;2022-12-07T17:11:45;6.10;;;4.18;;
46875;SDS011;32866;50.160;14.768;2022-12-07T17:14:10;6.80;;;4.75;;
46875;SDS011;32866;50.160;14.768;2022-12-07T17:16:54;7.83;;;5.03;;
46875;SDS011;32866;50.160;14.768;2022-12-07T17:19:20;8.30;;;5.05;;
46875;SDS011;32866;50.160;14.768;2022-12-07T17:21:45;7.25;;;5.30;;
46875;SDS011;32866;50.160;14.768;2022-12-07T17:24:12;6.70;;;4.45;;
46875;SDS011;32866;50.160;14.768;2022-12-07T17:26:38;8.57;;;4.70;;
46875;SDS011;32866;50.160;14.768;2022-12-07T17:29:05;6.63;;;4.78;;
46875;SDS011;32866;50.160;14.768;2022-12-07T17:31:31;8.73;;;4.97;;
46875;SDS011;32866;50.160;14.768;2022-12-07T17:33:58;9.80;;;5.43;;
46875;SDS011;32866;50.160;14.768;2022-12-07T17:36:24;10.05;;;5.53;;
46875;SDS011;32866;50.160;14.768;2022-12-07T17:38:52;8.27;;;4.57;;
46875;SDS011;32866;50.160;14.768;2022-12-07T17:41:19;7.13;;;4.88;;
46875;SDS011;32866;50.160;14.768;2022-12-07T17:44:06;6.72;;;4.53;;
46875;SDS011;32866;50.160;14.768;2022-12-07T17:46:33;7.43;;;5.00;;
46875;SDS011;32866;50.160;14.768;2022-12-07T17:48:59;8.65;;;4.53;;